sensor_id;sensor_type;location;lat;lon;timestamp;P1;durP1;ratioP1;P2;durP2;ratioP2
15921;SDS011;8060;50.948;3.146;2023-07-13T04:25:31;28.47;;;5.23;;
15921;SDS011;8060;50.948;3.146;2023-07-13T04:27:59;27.13;;;5.57;;
15921;SDS011;8060;50.948;3.146;2023-07-13T04:30:28;17.30;;;5.00;;
15921;SDS011;8060;50.948;3.146;2023-07-13T04:32:56;22.67;;;5.03;;
15921;SDS011;8060;50.948;3.146;2023-07-13T04:35:24;26.50;;;5.43;;
15921;SDS011;8060;50.948;3.146;2023-07-13T04:37:53;19.37;;;4.80;;
15921;SDS011;8060;50.948;3.146;2023-07-13T04:40:21;20.97;;;5.57;;
15921;SDS011;8060;50.948;3.146;2023-07-13T04:42:50;22.37;;;5.70;;
15921;SDS011;8060;50.948;3.146;2023-07-13T04:45:18;18.37;;;4.43;;
15921;SDS011;8060;50.948;3.146;2023-07-13T04:47:46;23.13;;;5.27;;
15921;SDS011;8060;50.948;3.146;2023-07-13T04:50:15;20.87;;;5.03;;
15921;SDS011;8060;50.948;3.146;2023-07-13T04:52:47;27.80;;;5.80;;
15921;SDS011;8060;50.948;3.146;2023-07-13T04:55:16;27.90;;;4.83;;
15921;SDS011;8060;50.948;3.146;2023-07-13T04:57:44;31.10;;;5.27;;
15921;SDS011;8060;50.948;3.146;2023-07-13T05:00:14;22.87;;;4.87;;
15921;SDS011;8060;50.948;3.146;2023-07-13T05:02:43;25.07;;;5.50;;
15921;SDS011;8060;50.948;3.146;2023-07-13T05:05:13;23.73;;;4.90;;
15921;SDS011;8060;50.948;3.146;2023-07-13T05:07:41;19.83;;;4.63;;
15921;SDS011;8060;50.948;3.146;2023-07-13T05:10:11;22.17;;;4.40;;
15921;SDS011;8060;50.948;3.146;2023-07-13T05:12:39;24.87;;;4.80;;
15921;SDS011;8060;50.948;3.146;2023-07-13T05:15:07;24.13;;;4.23;;
15921;SDS011;8060;50.948;3.146;2023-07-13T05:17:37;26.00;;;4.53;;
15921;SDS011;8060;50.948;3.146;2023-07-13T05:20:07;16.83;;;4.37;;
15921;SDS011;8060;50.948;3.146;2023-07-13T05:22:36;15.93;;;4.57;;
15921;SDS011;8060;50.948;3.146;2023-07-13T05:25:04;20.90;;;4.67;;
15921;SDS011;8060;50.948;3.146;2023-07-13T05:27:33;22.30;;;5.17;;
15921;SDS011;8060;50.948;3.146;2023-07-13T05:30:02;20.97;;;4.70;;
15921;SDS011;8060;50.948;3.146;2023-07-13T05:32:32;21.87;;;4.67;;
15921;SDS011;8060;50.948;3.146;2023-07-13T05:35:02;25.47;;;5.17;;
15921;SDS011;8060;50.948;3.146;2023-07-13T05:37:30;20.17;;;4.33;;
15921;SDS011;8060;50.948;3.146;2023-07-13T05:39:58;21.63;;;4.93;;
15921;SDS011;8060;50.948;3.146;2023-07-13T05:42:26;22.33;;;4.83;;
15921;SDS011;8060;50.948;3.146;2023-07-13T05:44:54;23.13;;;4.73;;
15921;SDS011;8060;50.948;3.146;2023-07-13T05:47:23;20.43;;;4.97;;
15921;SDS011;8060;50.948;3.146;2023-07-13T05:49:51;27.73;;;5.57;;
15921;SDS011;8060;50.948;3.146;2023-07-13T05:52:20;23.93;;;5.00;;
15921;SDS011;8060;50.948;3.146;2023-07-13T05:54:48;19.23;;;4.70;;
15921;SDS011;8060;50.948;3.146;2023-07-13T05:57:16;27.43;;;5.47;;
15921;SDS011;8060;50.948;3.146;2023-07-13T05:59:44;23.03;;;5.07;;
15921;SDS011;8060;50.948;3.146;2023-07-13T06:02:13;26.07;;;5.13;;
15921;SDS011;8060;50.948;3.146;2023-07-13T06:04:41;27.23;;;5.57;;
15921;SDS011;8060;50.948;3.146;2023-07-13T06:07:09;25.07;;;4.70;;
15921;SDS011;8060;50.948;3.146;2023-07-13T06:09:39;18.13;;;4.90;;
15921;SDS011;8060;50.948;3.146;2023-07-13T06:12:07;18.40;;;4.77;;
15921;SDS011;8060;50.948;3.146;2023-07-13T06:14:35;24.90;;;4.67;;
15921;SDS011;8060;50.948;3.146;2023-07-13T06:17:04;20.73;;;4.47;;
15921;SDS011;8060;50.948;3.146;2023-07-13T06:19:32;16.40;;;4.10;;
15921;SDS011;8060;50.948;3.146;2023-07-13T06:22:01;21.87;;;4.53;;
15921;SDS011;8060;50.948;3.146;2023-07-13T06:24:29;23.00;;;5.10;;
15921;SDS011;8060;50.948;3.146;2023-07-13T06:26:59;19.50;;;4.80;;
15921;SDS011;8060;50.948;3.146;2023-07-13T06:29:27;24.90;;;4.80;;
15921;SDS011;8060;50.948;3.146;2023-07-13T06:31:55;19.37;;;4.60;;
15921;SDS011;8060;50.948;3.146;2023-07-13T06:34:23;26.70;;;4.80;;
15921;SDS011;8060;50.948;3.146;2023-07-13T06:36:51;19.60;;;4.57;;
15921;SDS011;8060;50.948;3.146;2023-07-13T06:39:19;23.53;;;4.30;;
15921;SDS011;8060;50.948;3.146;2023-07-13T06:41:47;22.53;;;4.47;;
15921;SDS011;8060;50.948;3.146;2023-07-13T06:44:17;19.30;;;4.13;;
15921;SDS011;8060;50.948;3.146;2023-07-13T06:46:45;16.90;;;4.00;;
15921;SDS011;8060;50.948;3.146;2023-07-13T06:49:13;19.33;;;4.40;;
15921;SDS011;8060;50.948;3.146;2023-07-13T06:51:41;19.33;;;4.03;;
15921;SDS011;8060;50.948;3.146;2023-07-13T06:54:09;19.73;;;4.80;;
15921;SDS011;8060;50.948;3.146;2023-07-13T06:56:37;24.80;;;4.33;;
15921;SDS011;8060;50.948;3.146;2023-07-13T06:59:05;27.37;;;5.37;;
15921;SDS011;8060;50.948;3.146;2023-07-13T07:01:35;19.87;;;4.37;;
15921;SDS011;8060;50.948;3.146;2023-07-13T07:04:07;22.47;;;4.90;;
15921;SDS011;8060;50.948;3.146;2023-07-13T07:06:35;18.27;;;4.00;;
15921;SDS011;8060;50.948;3.146;2023-07-13T07:09:03;21.97;;;4.53;;
15921;SDS011;8060;50.948;3.146;2023-07-13T07:11:31;17.60;;;4.50;;
15921;SDS011;8060;50.948;3.146;2023-07-13T07:13:59;16.37;;;3.90;;
15921;SDS011;8060;50.948;3.146;2023-07-13T07:16:27;17.57;;;4.00;;
15921;SDS011;8060;50.948;3.146;2023-07-13T07:18:57;21.43;;;3.90;;
15921;SDS011;8060;50.948;3.146;2023-07-13T07:21:25;20.97;;;4.70;;
15921;SDS011;8060;50.948;3.146;2023-07-13T07:23:53;18.03;;;3.77;;
15921;SDS011;8060;50.948;3.146;2023-07-13T07:26:21;19.27;;;4.50;;
15921;SDS011;8060;50.948;3.146;2023-07-13T07:28:53;19.30;;;4.10;;
15921;SDS011;8060;50.948;3.146;2023-07-13T07:31:41;16.80;;;4.00;;
15921;SDS011;8060;50.948;3.146;2023-07-13T07:34:13;17.53;;;3.20;;
15921;SDS011;8060;50.948;3.146;2023-07-13T07:36:41;15.30;;;3.77;;
15921;SDS011;8060;50.948;3.146;2023-07-13T07:39:12;21.93;;;4.47;;
15921;SDS011;8060;50.948;3.146;2023-07-13T07:41:41;15.83;;;3.57;;
15921;SDS011;8060;50.948;3.146;2023-07-13T07:44:22;16.93;;;3.47;;
15921;SDS011;8060;50.948;3.146;2023-07-13T07:46:50;15.17;;;3.87;;
15921;SDS011;8060;50.948;3.146;2023-07-13T07:49:20;13.93;;;3.37;;
15921;SDS011;8060;50.948;3.146;2023-07-13T07:51:48;15.73;;;3.00;;
15921;SDS011;8060;50.948;3.146;2023-07-13T07:54:16;14.03;;;3.30;;
15921;SDS011;8060;50.948;3.146;2023-07-13T07:57:05;14.33;;;3.53;;
15921;SDS011;8060;50.948;3.146;2023-07-13T07:59:37;17.70;;;3.47;;
15921;SDS011;8060;50.948;3.146;2023-07-13T08:02:08;12.50;;;3.37;;
15921;SDS011;8060;50.948;3.146;2023-07-13T08:04:59;17.43;;;3.63;;
15921;SDS011;8060;50.948;3.146;2023-07-13T08:07:30;15.57;;;3.60;;
15921;SDS011;8060;50.948;3.146;2023-07-13T08:09:58;18.03;;;3.87;;
15921;SDS011;8060;50.948;3.146;2023-07-13T08:12:27;10.43;;;3.27;;
15921;SDS011;8060;50.948;3.146;2023-07-13T08:14:58;18.00;;;3.60;;
15921;SDS011;8060;50.948;3.146;2023-07-13T08:17:27;15.97;;;3.90;;
15921;SDS011;8060;50.948;3.146;2023-07-13T08:19:55;8.53;;;2.47;;
15921;SDS011;8060;50.948;3.146;2023-07-13T08:22:25;15.40;;;3.57;;
15921;SDS011;8060;50.948;3.146;2023-07-13T08:24:53;15.50;;;3.27;;
15921;SDS011;8060;50.948;3.146;2023-07-13T08:27:22;10.37;;;2.53;;
15921;SDS011;8060;50.948;3.146;2023-07-13T08:29:51;11.50;;;2.87;;
15921;SDS011;8060;50.948;3.146;2023-07-13T08:32:20;9.97;;;2.60;;
15921;SDS011;8060;50.948;3.146;2023-07-13T08:34:50;13.50;;;3.20;;
15921;SDS011;8060;50.948;3.146;2023-07-13T08:37:18;14.27;;;4.10;;
15921;SDS011;8060;50.948;3.146;2023-07-13T08:39:48;16.50;;;4.23;;
15921;SDS011;8060;50.948;3.146;2023-07-13T08:42:28;13.27;;;3.50;;
15921;SDS011;8060;50.948;3.146;2023-07-13T08:45:06;10.30;;;3.00;;
15921;SDS011;8060;50.948;3.146;2023-07-13T08:47:48;14.97;;;3.10;;
15921;SDS011;8060;50.948;3.146;2023-07-13T08:50:23;12.23;;;3.33;;
15921;SDS011;8060;50.948;3.146;2023-07-13T08:52:55;16.07;;;3.23;;
15921;SDS011;8060;50.948;3.146;2023-07-13T08:55:27;12.30;;;3.47;;
15921;SDS011;8060;50.948;3.146;2023-07-13T08:58:01;15.00;;;3.40;;
15921;SDS011;8060;50.948;3.146;2023-07-13T09:00:38;15.57;;;3.40;;
15921;SDS011;8060;50.948;3.146;2023-07-13T09:03:20;13.20;;;2.93;;
15921;SDS011;8060;50.948;3.146;2023-07-13T09:05:52;15.40;;;2.77;;
15921;SDS011;8060;50.948;3.146;2023-07-13T09:08:31;10.70;;;2.40;;
15921;SDS011;8060;50.948;3.146;2023-07-13T09:11:16;11.97;;;2.50;;
15921;SDS011;8060;50.948;3.146;2023-07-13T09:13:57;11.73;;;2.97;;
15921;SDS011;8060;50.948;3.146;2023-07-13T09:16:33;11.00;;;2.63;;
15921;SDS011;8060;50.948;3.146;2023-07-13T09:19:04;8.73;;;2.47;;
15921;SDS011;8060;50.948;3.146;2023-07-13T09:21:36;9.30;;;2.53;;
15921;SDS011;8060;50.948;3.146;2023-07-13T09:24:34;9.53;;;2.07;;
15921;SDS011;8060;50.948;3.146;2023-07-13T09:29:52;12.73;;;2.60;;
15921;SDS011;8060;50.948;3.146;2023-07-13T09:32:25;6.17;;;1.80;;
15921;SDS011;8060;50.948;3.146;2023-07-13T09:34:55;11.90;;;1.77;;
15921;SDS011;8060;50.948;3.146;2023-07-13T09:37:27;16.50;;;2.55;;
15921;SDS011;8060;50.948;3.146;2023-07-13T09:39:58;14.68;;;2.25;;
15921;SDS011;8060;50.948;3.146;2023-07-13T09:42:32;10.20;;;2.55;;
15921;SDS011;8060;50.948;3.146;2023-07-13T09:45:02;8.85;;;2.25;;
15921;SDS011;8060;50.948;3.146;2023-07-13T09:47:33;8.60;;;2.72;;
15921;SDS011;8060;50.948;3.146;2023-07-13T09:50:10;9.02;;;1.80;;
15921;SDS011;8060;50.948;3.146;2023-07-13T09:52:44;10.27;;;2.13;;
15921;SDS011;8060;50.948;3.146;2023-07-13T09:55:24;8.87;;;1.90;;
15921;SDS011;8060;50.948;3.146;2023-07-13T09:57:55;9.87;;;1.93;;
15921;SDS011;8060;50.948;3.146;2023-07-13T10:00:24;14.07;;;2.57;;
15921;SDS011;8060;50.948;3.146;2023-07-13T10:03:03;14.43;;;3.73;;
15921;SDS011;8060;50.948;3.146;2023-07-13T10:05:40;17.83;;;4.40;;
15921;SDS011;8060;50.948;3.146;2023-07-13T10:08:20;13.50;;;3.43;;
15921;SDS011;8060;50.948;3.146;2023-07-13T10:10:54;9.27;;;3.20;;
15921;SDS011;8060;50.948;3.146;2023-07-13T10:13:29;11.43;;;3.33;;
15921;SDS011;8060;50.948;3.146;2023-07-13T10:16:00;9.73;;;3.40;;
15921;SDS011;8060;50.948;3.146;2023-07-13T10:18:34;10.97;;;3.63;;
15921;SDS011;8060;50.948;3.146;2023-07-13T10:21:13;9.73;;;2.60;;
15921;SDS011;8060;50.948;3.146;2023-07-13T10:23:48;7.10;;;2.10;;
15921;SDS011;8060;50.948;3.146;2023-07-13T10:26:21;10.37;;;2.63;;
15921;SDS011;8060;50.948;3.146;2023-07-13T10:28:54;7.40;;;2.33;;
15921;SDS011;8060;50.948;3.146;2023-07-13T10:31:26;8.10;;;2.50;;
15921;SDS011;8060;50.948;3.146;2023-07-13T10:33:54;3.97;;;2.33;;
15921;SDS011;8060;50.948;3.146;2023-07-13T10:36:27;6.37;;;2.67;;
15921;SDS011;8060;50.948;3.146;2023-07-13T10:39:01;9.30;;;3.10;;
15921;SDS011;8060;50.948;3.146;2023-07-13T10:41:33;9.07;;;2.97;;
15921;SDS011;8060;50.948;3.146;2023-07-13T10:44:09;9.03;;;3.07;;
15921;SDS011;8060;50.948;3.146;2023-07-13T10:46:44;9.80;;;3.03;;
15921;SDS011;8060;50.948;3.146;2023-07-13T10:49:13;10.63;;;3.00;;
15921;SDS011;8060;50.948;3.146;2023-07-13T10:51:43;19.33;;;2.40;;
15921;SDS011;8060;50.948;3.146;2023-07-13T10:54:19;8.33;;;2.57;;
15921;SDS011;8060;50.948;3.146;2023-07-13T10:56:52;8.63;;;2.50;;
15921;SDS011;8060;50.948;3.146;2023-07-13T10:59:44;9.30;;;3.03;;
15921;SDS011;8060;50.948;3.146;2023-07-13T11:02:17;7.03;;;2.97;;
15921;SDS011;8060;50.948;3.146;2023-07-13T11:04:55;9.20;;;2.73;;
15921;SDS011;8060;50.948;3.146;2023-07-13T11:07:26;9.47;;;2.43;;
15921;SDS011;8060;50.948;3.146;2023-07-13T11:09:56;6.60;;;2.27;;
15921;SDS011;8060;50.948;3.146;2023-07-13T11:15:42;4.47;;;1.90;;
15921;SDS011;8060;50.948;3.146;2023-07-13T11:18:20;7.90;;;1.60;;
15921;SDS011;8060;50.948;3.146;2023-07-13T11:20:51;8.30;;;1.77;;
15921;SDS011;8060;50.948;3.146;2023-07-13T11:23:26;8.70;;;2.00;;
15921;SDS011;8060;50.948;3.146;2023-07-13T11:25:58;4.87;;;1.70;;
15921;SDS011;8060;50.948;3.146;2023-07-13T11:28:30;8.40;;;1.83;;
15921;SDS011;8060;50.948;3.146;2023-07-13T11:31:02;5.20;;;1.52;;
15921;SDS011;8060;50.948;3.146;2023-07-13T11:33:52;7.90;;;2.00;;
15921;SDS011;8060;50.948;3.146;2023-07-13T11:36:27;5.85;;;1.70;;
15921;SDS011;8060;50.948;3.146;2023-07-13T11:39:12;6.25;;;1.75;;
15921;SDS011;8060;50.948;3.146;2023-07-13T11:41:46;4.65;;;1.52;;
15921;SDS011;8060;50.948;3.146;2023-07-13T11:44:19;4.97;;;1.63;;
15921;SDS011;8060;50.948;3.146;2023-07-13T11:46:51;4.50;;;1.52;;
15921;SDS011;8060;50.948;3.146;2023-07-13T11:49:22;4.60;;;1.70;;
15921;SDS011;8060;50.948;3.146;2023-07-13T11:51:53;5.07;;;1.63;;
15921;SDS011;8060;50.948;3.146;2023-07-13T11:54:26;5.43;;;1.70;;
15921;SDS011;8060;50.948;3.146;2023-07-13T11:56:57;6.45;;;1.70;;
15921;SDS011;8060;50.948;3.146;2023-07-13T11:59:29;5.75;;;1.52;;
15921;SDS011;8060;50.948;3.146;2023-07-13T12:02:00;6.55;;;1.92;;
15921;SDS011;8060;50.948;3.146;2023-07-13T12:04:31;7.15;;;1.90;;
15921;SDS011;8060;50.948;3.146;2023-07-13T12:07:05;6.53;;;1.55;;
15921;SDS011;8060;50.948;3.146;2023-07-13T12:09:36;3.35;;;1.67;;
15921;SDS011;8060;50.948;3.146;2023-07-13T12:12:09;3.83;;;1.35;;
15921;SDS011;8060;50.948;3.146;2023-07-13T12:14:39;4.93;;;1.60;;
15921;SDS011;8060;50.948;3.146;2023-07-13T12:17:16;4.93;;;1.65;;
15921;SDS011;8060;50.948;3.146;2023-07-13T12:19:47;4.60;;;1.80;;
15921;SDS011;8060;50.948;3.146;2023-07-13T12:22:16;4.97;;;1.70;;
15921;SDS011;8060;50.948;3.146;2023-07-13T12:24:46;6.60;;;1.58;;
15921;SDS011;8060;50.948;3.146;2023-07-13T12:27:18;4.35;;;1.60;;
15921;SDS011;8060;50.948;3.146;2023-07-13T12:29:50;6.05;;;1.40;;
15921;SDS011;8060;50.948;3.146;2023-07-13T12:32:21;4.28;;;1.50;;
15921;SDS011;8060;50.948;3.146;2023-07-13T12:34:53;3.58;;;1.33;;
15921;SDS011;8060;50.948;3.146;2023-07-13T12:37:23;3.13;;;1.40;;
15921;SDS011;8060;50.948;3.146;2023-07-13T12:39:51;2.28;;;1.30;;
15921;SDS011;8060;50.948;3.146;2023-07-13T12:42:21;3.45;;;1.45;;
15921;SDS011;8060;50.948;3.146;2023-07-13T12:44:54;3.53;;;1.30;;
15921;SDS011;8060;50.948;3.146;2023-07-13T12:47:28;4.30;;;1.75;;
15921;SDS011;8060;50.948;3.146;2023-07-13T12:49:57;5.63;;;1.67;;
15921;SDS011;8060;50.948;3.146;2023-07-13T12:52:29;4.78;;;1.48;;
15921;SDS011;8060;50.948;3.146;2023-07-13T12:55:04;6.07;;;1.73;;
15921;SDS011;8060;50.948;3.146;2023-07-13T12:57:40;4.15;;;1.60;;
15921;SDS011;8060;50.948;3.146;2023-07-13T13:00:23;4.68;;;1.50;;
15921;SDS011;8060;50.948;3.146;2023-07-13T13:02:56;4.55;;;1.65;;
15921;SDS011;8060;50.948;3.146;2023-07-13T13:05:47;5.70;;;1.60;;
15921;SDS011;8060;50.948;3.146;2023-07-13T13:08:15;5.25;;;1.67;;
15921;SDS011;8060;50.948;3.146;2023-07-13T13:10:43;3.33;;;1.50;;
15921;SDS011;8060;50.948;3.146;2023-07-13T13:13:12;4.47;;;1.45;;
15921;SDS011;8060;50.948;3.146;2023-07-13T13:15:40;6.05;;;1.33;;
15921;SDS011;8060;50.948;3.146;2023-07-13T13:18:15;4.90;;;1.80;;
15921;SDS011;8060;50.948;3.146;2023-07-13T13:20:44;2.75;;;1.38;;
15921;SDS011;8060;50.948;3.146;2023-07-13T13:23:14;5.03;;;1.80;;
15921;SDS011;8060;50.948;3.146;2023-07-13T13:25:44;4.50;;;1.63;;
15921;SDS011;8060;50.948;3.146;2023-07-13T13:28:14;5.63;;;1.48;;
15921;SDS011;8060;50.948;3.146;2023-07-13T13:30:44;2.08;;;1.20;;
15921;SDS011;8060;50.948;3.146;2023-07-13T13:33:14;3.08;;;1.20;;
15921;SDS011;8060;50.948;3.146;2023-07-13T13:35:45;5.78;;;1.45;;
15921;SDS011;8060;50.948;3.146;2023-07-13T13:38:14;3.30;;;1.30;;
15921;SDS011;8060;50.948;3.146;2023-07-13T13:40:44;2.55;;;1.40;;
15921;SDS011;8060;50.948;3.146;2023-07-13T13:43:16;2.88;;;1.40;;
15921;SDS011;8060;50.948;3.146;2023-07-13T13:45:45;4.18;;;1.30;;
15921;SDS011;8060;50.948;3.146;2023-07-13T13:48:16;3.60;;;1.20;;
15921;SDS011;8060;50.948;3.146;2023-07-13T13:50:46;4.97;;;1.52;;
15921;SDS011;8060;50.948;3.146;2023-07-13T13:53:15;5.03;;;1.55;;
15921;SDS011;8060;50.948;3.146;2023-07-13T13:55:44;2.60;;;1.15;;
15921;SDS011;8060;50.948;3.146;2023-07-13T13:58:13;3.88;;;1.10;;
15921;SDS011;8060;50.948;3.146;2023-07-13T14:00:41;3.80;;;1.50;;
15921;SDS011;8060;50.948;3.146;2023-07-13T14:03:13;4.43;;;1.20;;
15921;SDS011;8060;50.948;3.146;2023-07-13T14:05:45;9.00;;;1.48;;
15921;SDS011;8060;50.948;3.146;2023-07-13T14:08:14;3.80;;;1.50;;
15921;SDS011;8060;50.948;3.146;2023-07-13T14:10:45;3.65;;;1.38;;
15921;SDS011;8060;50.948;3.146;2023-07-13T14:13:17;3.53;;;1.20;;
15921;SDS011;8060;50.948;3.146;2023-07-13T14:15:47;2.83;;;1.13;;
15921;SDS011;8060;50.948;3.146;2023-07-13T14:18:17;4.03;;;1.30;;
15921;SDS011;8060;50.948;3.146;2023-07-13T14:20:46;4.38;;;1.13;;
15921;SDS011;8060;50.948;3.146;2023-07-13T14:23:16;3.53;;;1.25;;
15921;SDS011;8060;50.948;3.146;2023-07-13T14:25:45;3.42;;;1.40;;
15921;SDS011;8060;50.948;3.146;2023-07-13T14:28:21;2.17;;;1.10;;
15921;SDS011;8060;50.948;3.146;2023-07-13T14:30:51;2.90;;;0.93;;
15921;SDS011;8060;50.948;3.146;2023-07-13T14:33:22;2.95;;;1.20;;
15921;SDS011;8060;50.948;3.146;2023-07-13T14:35:51;3.25;;;1.17;;
15921;SDS011;8060;50.948;3.146;2023-07-13T14:38:19;4.57;;;1.17;;
15921;SDS011;8060;50.948;3.146;2023-07-13T14:40:48;2.85;;;1.30;;
15921;SDS011;8060;50.948;3.146;2023-07-13T14:43:17;3.08;;;1.23;;
15921;SDS011;8060;50.948;3.146;2023-07-13T14:45:46;7.22;;;1.63;;
15921;SDS011;8060;50.948;3.146;2023-07-13T14:48:18;3.20;;;1.30;;
15921;SDS011;8060;50.948;3.146;2023-07-13T14:50:51;5.32;;;1.50;;
15921;SDS011;8060;50.948;3.146;2023-07-13T14:53:24;4.25;;;1.20;;
15921;SDS011;8060;50.948;3.146;2023-07-13T14:55:54;7.15;;;1.20;;
15921;SDS011;8060;50.948;3.146;2023-07-13T14:58:22;4.60;;;1.70;;
15921;SDS011;8060;50.948;3.146;2023-07-13T15:00:50;5.40;;;1.35;;
15921;SDS011;8060;50.948;3.146;2023-07-13T15:03:23;5.78;;;1.52;;
15921;SDS011;8060;50.948;3.146;2023-07-13T15:05:54;6.20;;;1.50;;
15921;SDS011;8060;50.948;3.146;2023-07-13T15:08:22;4.38;;;1.48;;
15921;SDS011;8060;50.948;3.146;2023-07-13T15:10:51;4.38;;;1.58;;
15921;SDS011;8060;50.948;3.146;2023-07-13T15:13:20;2.38;;;1.30;;
15921;SDS011;8060;50.948;3.146;2023-07-13T15:15:50;5.20;;;1.92;;
15921;SDS011;8060;50.948;3.146;2023-07-13T15:18:20;2.92;;;1.20;;
15921;SDS011;8060;50.948;3.146;2023-07-13T15:20:51;3.60;;;1.50;;
15921;SDS011;8060;50.948;3.146;2023-07-13T15:23:23;5.60;;;1.30;;
15921;SDS011;8060;50.948;3.146;2023-07-13T15:25:52;4.68;;;1.45;;
15921;SDS011;8060;50.948;3.146;2023-07-13T15:28:20;4.15;;;1.60;;
15921;SDS011;8060;50.948;3.146;2023-07-13T15:30:50;4.60;;;1.48;;
15921;SDS011;8060;50.948;3.146;2023-07-13T15:33:20;3.78;;;1.40;;
15921;SDS011;8060;50.948;3.146;2023-07-13T15:35:50;3.10;;;1.23;;
15921;SDS011;8060;50.948;3.146;2023-07-13T15:38:20;4.50;;;1.27;;
15921;SDS011;8060;50.948;3.146;2023-07-13T15:40:52;3.70;;;1.40;;
15921;SDS011;8060;50.948;3.146;2023-07-13T15:43:21;3.45;;;1.10;;
15921;SDS011;8060;50.948;3.146;2023-07-13T15:45:49;5.13;;;1.30;;
15921;SDS011;8060;50.948;3.146;2023-07-13T15:48:19;2.95;;;1.30;;
15921;SDS011;8060;50.948;3.146;2023-07-13T15:50:49;6.20;;;1.38;;
15921;SDS011;8060;50.948;3.146;2023-07-13T15:53:20;5.78;;;1.60;;
15921;SDS011;8060;50.948;3.146;2023-07-13T15:55:52;3.50;;;1.33;;
15921;SDS011;8060;50.948;3.146;2023-07-13T15:58:20;5.03;;;1.10;;
15921;SDS011;8060;50.948;3.146;2023-07-13T16:00:49;2.53;;;1.13;;
15921;SDS011;8060;50.948;3.146;2023-07-13T16:03:18;3.92;;;1.42;;
15921;SDS011;8060;50.948;3.146;2023-07-13T16:05:47;3.90;;;1.10;;
15921;SDS011;8060;50.948;3.146;2023-07-13T16:08:17;3.88;;;1.13;;
15921;SDS011;8060;50.948;3.146;2023-07-13T16:10:52;2.20;;;0.93;;
15921;SDS011;8060;50.948;3.146;2023-07-13T16:13:21;4.05;;;1.42;;
15921;SDS011;8060;50.948;3.146;2023-07-13T16:15:51;3.33;;;1.00;;
15921;SDS011;8060;50.948;3.146;2023-07-13T16:18:23;2.90;;;1.13;;
15921;SDS011;8060;50.948;3.146;2023-07-13T16:20:52;4.88;;;1.40;;
15921;SDS011;8060;50.948;3.146;2023-07-13T16:23:23;3.60;;;1.00;;
15921;SDS011;8060;50.948;3.146;2023-07-13T16:25:53;3.90;;;1.13;;
15921;SDS011;8060;50.948;3.146;2023-07-13T16:28:22;4.40;;;1.00;;
15921;SDS011;8060;50.948;3.146;2023-07-13T16:30:51;2.22;;;1.15;;
15921;SDS011;8060;50.948;3.146;2023-07-13T16:33:20;2.35;;;1.17;;
15921;SDS011;8060;50.948;3.146;2023-07-13T16:35:50;2.97;;;1.05;;
15921;SDS011;8060;50.948;3.146;2023-07-13T16:38:20;3.30;;;1.10;;
15921;SDS011;8060;50.948;3.146;2023-07-13T16:40:50;4.53;;;1.35;;
15921;SDS011;8060;50.948;3.146;2023-07-13T16:43:20;3.75;;;1.20;;
15921;SDS011;8060;50.948;3.146;2023-07-13T16:45:49;4.15;;;1.20;;
15921;SDS011;8060;50.948;3.146;2023-07-13T16:48:19;4.30;;;1.27;;
15921;SDS011;8060;50.948;3.146;2023-07-13T16:50:53;6.47;;;1.20;;
15921;SDS011;8060;50.948;3.146;2023-07-13T16:53:24;6.50;;;1.23;;
15921;SDS011;8060;50.948;3.146;2023-07-13T16:55:54;4.75;;;1.35;;
15921;SDS011;8060;50.948;3.146;2023-07-13T16:58:28;4.57;;;1.30;;
15921;SDS011;8060;50.948;3.146;2023-07-13T17:00:58;3.03;;;1.10;;
15921;SDS011;8060;50.948;3.146;2023-07-13T17:03:30;5.53;;;1.20;;
15921;SDS011;8060;50.948;3.146;2023-07-13T17:06:00;4.28;;;1.17;;
15921;SDS011;8060;50.948;3.146;2023-07-13T17:08:43;4.07;;;1.35;;
15921;SDS011;8060;50.948;3.146;2023-07-13T17:11:11;6.38;;;1.60;;
15921;SDS011;8060;50.948;3.146;2023-07-13T17:13:41;6.38;;;1.95;;
15921;SDS011;8060;50.948;3.146;2023-07-13T17:16:09;2.05;;;0.95;;
15921;SDS011;8060;50.948;3.146;2023-07-13T17:18:38;5.55;;;1.70;;
15921;SDS011;8060;50.948;3.146;2023-07-13T17:21:09;4.80;;;1.45;;
15921;SDS011;8060;50.948;3.146;2023-07-13T17:23:41;4.45;;;1.77;;
15921;SDS011;8060;50.948;3.146;2023-07-13T17:26:10;3.85;;;1.33;;
15921;SDS011;8060;50.948;3.146;2023-07-13T17:28:40;5.00;;;1.43;;
15921;SDS011;8060;50.948;3.146;2023-07-13T17:31:10;3.67;;;1.70;;
15921;SDS011;8060;50.948;3.146;2023-07-13T17:33:49;4.33;;;1.47;;
15921;SDS011;8060;50.948;3.146;2023-07-13T17:36:18;2.37;;;1.60;;
15921;SDS011;8060;50.948;3.146;2023-07-13T17:38:47;4.27;;;1.20;;
15921;SDS011;8060;50.948;3.146;2023-07-13T17:41:23;3.07;;;1.43;;
15921;SDS011;8060;50.948;3.146;2023-07-13T17:43:53;2.50;;;1.10;;
15921;SDS011;8060;50.948;3.146;2023-07-13T17:46:24;2.70;;;1.23;;
15921;SDS011;8060;50.948;3.146;2023-07-13T17:48:55;8.15;;;2.38;;
15921;SDS011;8060;50.948;3.146;2023-07-13T17:51:24;4.87;;;2.03;;
15921;SDS011;8060;50.948;3.146;2023-07-13T17:53:54;4.77;;;2.00;;
15921;SDS011;8060;50.948;3.146;2023-07-13T17:56:24;3.60;;;1.53;;
15921;SDS011;8060;50.948;3.146;2023-07-13T17:58:54;3.23;;;1.53;;
15921;SDS011;8060;50.948;3.146;2023-07-13T18:01:22;5.13;;;1.33;;
15921;SDS011;8060;50.948;3.146;2023-07-13T18:03:52;3.17;;;1.37;;
15921;SDS011;8060;50.948;3.146;2023-07-13T18:06:26;4.50;;;1.27;;
15921;SDS011;8060;50.948;3.146;2023-07-13T18:08:57;6.07;;;1.50;;
15921;SDS011;8060;50.948;3.146;2023-07-13T18:11:33;5.10;;;1.50;;
15921;SDS011;8060;50.948;3.146;2023-07-13T18:14:02;5.50;;;1.50;;
15921;SDS011;8060;50.948;3.146;2023-07-13T18:16:31;5.87;;;1.27;;
15921;SDS011;8060;50.948;3.146;2023-07-13T18:19:01;2.57;;;1.20;;
15921;SDS011;8060;50.948;3.146;2023-07-13T18:21:31;3.17;;;1.30;;
15921;SDS011;8060;50.948;3.146;2023-07-13T18:24:01;4.53;;;1.30;;
15921;SDS011;8060;50.948;3.146;2023-07-13T18:26:31;4.53;;;1.10;;
15921;SDS011;8060;50.948;3.146;2023-07-13T18:28:59;2.33;;;1.00;;
15921;SDS011;8060;50.948;3.146;2023-07-13T18:31:30;3.00;;;1.00;;
15921;SDS011;8060;50.948;3.146;2023-07-13T18:34:01;4.87;;;1.17;;
15921;SDS011;8060;50.948;3.146;2023-07-13T18:36:30;4.17;;;1.43;;
15921;SDS011;8060;50.948;3.146;2023-07-13T18:38:58;4.50;;;1.10;;
15921;SDS011;8060;50.948;3.146;2023-07-13T18:41:27;3.50;;;1.20;;
15921;SDS011;8060;50.948;3.146;2023-07-13T18:43:55;4.20;;;1.00;;
15921;SDS011;8060;50.948;3.146;2023-07-13T18:46:24;4.40;;;1.20;;
15921;SDS011;8060;50.948;3.146;2023-07-13T18:48:56;3.60;;;1.50;;
15921;SDS011;8060;50.948;3.146;2023-07-13T18:51:24;6.33;;;1.43;;
15921;SDS011;8060;50.948;3.146;2023-07-13T18:53:54;3.13;;;1.20;;
15921;SDS011;8060;50.948;3.146;2023-07-13T18:56:24;3.20;;;1.20;;
15921;SDS011;8060;50.948;3.146;2023-07-13T18:58:53;2.87;;;1.53;;
15921;SDS011;8060;50.948;3.146;2023-07-13T19:01:23;3.20;;;1.20;;
15921;SDS011;8060;50.948;3.146;2023-07-13T19:03:58;3.13;;;1.23;;
15921;SDS011;8060;50.948;3.146;2023-07-13T19:06:27;4.93;;;1.47;;
15921;SDS011;8060;50.948;3.146;2023-07-13T19:08:56;5.03;;;1.50;;
15921;SDS011;8060;50.948;3.146;2023-07-13T19:11:24;4.30;;;1.50;;
15921;SDS011;8060;50.948;3.146;2023-07-13T19:13:52;3.10;;;1.20;;
15921;SDS011;8060;50.948;3.146;2023-07-13T19:16:21;3.83;;;1.30;;
15921;SDS011;8060;50.948;3.146;2023-07-13T19:18:50;7.27;;;1.70;;
